createdAt,value
2023-02-20T00:00:26.018Z,8.05
2023-02-20T00:02:54.277Z,8.05
2023-02-20T00:05:24.784Z,8.08
2023-02-20T00:07:53.327Z,8.16
2023-02-20T00:10:21.626Z,8.05
2023-02-20T00:12:50.203Z,8.03
2023-02-20T00:15:20.796Z,7.96
2023-02-20T00:17:49.736Z,7.96
2023-02-20T00:20:22.449Z,7.88
2023-02-20T00:22:53.516Z,7.86
2023-02-20T00:25:22.923Z,7.89
2023-02-20T00:27:51.893Z,7.82
2023-02-20T00:30:23.308Z,7.82
2023-02-20T00:32:55.047Z,7.76
2023-02-20T00:35:24.742Z,7.75
2023-02-20T00:37:56.162Z,7.82
2023-02-20T00:40:26.607Z,7.75
2023-02-20T00:42:55.669Z,7.78
2023-02-20T00:45:24.551Z,7.78
2023-02-20T00:47:52.981Z,7.80
2023-02-20T00:50:21.524Z,7.78
2023-02-20T00:52:50.009Z,7.74
2023-02-20T00:55:20.899Z,7.77
2023-02-20T00:57:49.272Z,7.76
2023-02-20T01:00:22.843Z,7.75
2023-02-20T01:02:51.648Z,7.73
2023-02-20T01:05:20.951Z,7.70
2023-02-20T01:07:49.339Z,7.64
2023-02-20T01:10:17.828Z,7.63
2023-02-20T01:12:47.759Z,7.65
2023-02-20T01:15:17.288Z,7.60
2023-02-20T01:17:45.637Z,7.57
2023-02-20T01:20:14.181Z,7.60
2023-02-20T01:22:43.004Z,7.58
2023-02-20T01:25:12.059Z,7.47
2023-02-20T01:27:40.386Z,7.48
2023-02-20T01:30:11.882Z,7.42
2023-02-20T01:32:40.151Z,7.36
2023-02-20T01:35:09.760Z,7.40
2023-02-20T01:37:38.053Z,7.33
2023-02-20T01:40:08.783Z,7.31
2023-02-20T01:42:37.185Z,7.21
2023-02-20T01:45:34.917Z,7.23
2023-02-20T01:48:03.386Z,7.18
2023-02-20T01:50:36.977Z,7.14
2023-02-20T01:53:12.765Z,7.10
2023-02-20T01:55:46.040Z,7.08
2023-02-20T01:58:20.696Z,7.08
2023-02-20T02:00:50.492Z,7.07
2023-02-20T02:03:24.022Z,7.06
2023-02-20T02:05:56.868Z,7.13
2023-02-20T02:08:27.265Z,7.06
2023-02-20T02:11:02.569Z,7.07
2023-02-20T02:13:31.521Z,7.07
2023-02-20T02:16:15.471Z,6.99
2023-02-20T02:18:54.485Z,7.02
2023-02-20T02:22:30.815Z,7.02
2023-02-20T02:25:26.536Z,6.96
2023-02-20T02:29:04.782Z,6.92
2023-02-20T02:32:27.962Z,6.87
2023-02-20T02:35:32.461Z,6.79
2023-02-20T02:38:16.159Z,6.86
2023-02-20T02:40:52.976Z,6.80
2023-02-20T02:43:31.139Z,6.90
2023-02-20T02:46:07.480Z,6.90
2023-02-20T02:48:40.918Z,6.95
2023-02-20T02:51:16.937Z,6.92
2023-02-20T02:54:06.857Z,6.84
2023-02-20T02:56:36.721Z,6.88
2023-02-20T02:59:07.018Z,6.89
2023-02-20T03:01:39.580Z,6.88
2023-02-20T03:04:09.329Z,6.86
2023-02-20T03:06:46.018Z,6.86
2023-02-20T03:09:21.199Z,6.89
2023-02-20T03:11:51.528Z,6.88
2023-02-20T03:14:46.972Z,6.89
2023-02-20T03:17:22.794Z,6.91
2023-02-20T03:19:54.741Z,6.89
2023-02-20T03:22:28.352Z,6.86
2023-02-20T03:25:05.758Z,6.86
2023-02-20T03:27:43.108Z,6.84
2023-02-20T03:30:22.476Z,6.86
2023-02-20T03:33:13.767Z,6.83
2023-02-20T03:36:02.900Z,6.83
2023-02-20T03:38:56.178Z,6.84
2023-02-20T03:41:46.363Z,6.81
2023-02-20T03:44:17.266Z,6.85
2023-02-20T03:46:48.533Z,6.82
2023-02-20T03:49:21.976Z,6.82
2023-02-20T03:51:59.636Z,6.81
2023-02-20T03:54:36.854Z,6.80
2023-02-20T03:57:12.797Z,6.83
2023-02-20T03:59:47.878Z,6.83
2023-02-20T04:02:22.297Z,6.86
2023-02-20T04:04:54.669Z,6.88
2023-02-20T04:07:29.171Z,6.85
2023-02-20T04:10:01.918Z,6.85
2023-02-20T04:12:38.894Z,6.80
2023-02-20T04:15:10.341Z,6.84
2023-02-20T04:17:47.164Z,6.79
2023-02-20T04:20:16.918Z,6.78
2023-02-20T04:22:58.483Z,6.75
2023-02-20T04:25:35.788Z,6.71
2023-02-20T04:28:07.686Z,6.73
2023-02-20T04:30:46.915Z,6.69
2023-02-20T04:33:16.911Z,6.71
2023-02-20T04:35:46.581Z,6.72
2023-02-20T04:38:17.014Z,6.71
2023-02-20T04:40:45.353Z,6.68
2023-02-20T04:43:15.065Z,6.65
2023-02-20T04:45:43.601Z,6.64
2023-02-20T04:48:11.984Z,6.64
2023-02-20T04:50:41.516Z,6.58
2023-02-20T04:53:10.615Z,6.59
2023-02-20T04:55:38.941Z,6.57
2023-02-20T04:58:12.150Z,6.56
2023-02-20T05:01:11.024Z,6.54
2023-02-20T05:03:39.299Z,6.54
2023-02-20T05:06:07.998Z,6.50
2023-02-20T05:08:36.233Z,6.50
2023-02-20T05:11:04.588Z,6.45
2023-02-20T05:13:33.136Z,6.42
2023-02-20T05:16:01.518Z,6.41
2023-02-20T05:18:32.599Z,6.39
2023-02-20T05:21:18.931Z,6.42
2023-02-20T05:23:48.105Z,6.36
2023-02-20T05:26:22.521Z,6.31
2023-02-20T05:28:50.857Z,6.34
2023-02-20T05:31:19.232Z,6.29
2023-02-20T05:33:49.013Z,6.27
2023-02-20T05:36:18.199Z,6.28
2023-02-20T05:38:48.099Z,6.26
2023-02-20T05:41:16.936Z,6.24
2023-02-20T05:43:45.347Z,6.24
2023-02-20T05:46:14.179Z,6.21
2023-02-20T05:48:42.632Z,6.21
2023-02-20T05:51:22.224Z,6.15
2023-02-20T05:53:50.632Z,6.15
2023-02-20T05:56:19.792Z,6.15
2023-02-20T05:58:49.046Z,6.15
2023-02-20T06:01:25.257Z,6.10
2023-02-20T06:03:53.770Z,6.09
2023-02-20T06:06:23.954Z,6.08
2023-02-20T06:08:52.262Z,6.09
2023-02-20T06:11:20.582Z,6.07
2023-02-20T06:13:48.804Z,6.08
2023-02-20T06:16:24.609Z,6.03
2023-02-20T06:18:53.685Z,6.02
2023-02-20T06:21:24.571Z,5.99
2023-02-20T06:23:55.011Z,5.95
2023-02-20T06:26:30.948Z,5.94
2023-02-20T06:29:05.529Z,5.92
2023-02-20T06:31:35.157Z,5.91
2023-02-20T06:34:13.632Z,5.90
2023-02-20T06:36:44.694Z,5.86
2023-02-20T06:39:15.400Z,5.84
2023-02-20T06:41:44.353Z,5.82
2023-02-20T06:44:12.661Z,5.78
2023-02-20T06:46:41.652Z,5.81
2023-02-20T06:49:11.197Z,5.79
2023-02-20T06:51:40.304Z,5.84
2023-02-20T06:54:11.549Z,5.80
2023-02-20T06:56:39.822Z,5.81
2023-02-20T06:59:09.731Z,5.81
2023-02-20T07:01:43.785Z,5.83
2023-02-20T07:04:19.018Z,5.82
2023-02-20T07:06:48.055Z,5.82
2023-02-20T07:09:20.208Z,5.78
2023-02-20T07:11:50.455Z,5.78
2023-02-20T07:14:18.858Z,5.78
2023-02-20T07:16:47.282Z,5.81
2023-02-20T07:19:15.665Z,5.81
2023-02-20T07:21:44.019Z,5.85
2023-02-20T07:24:12.386Z,5.89
2023-02-20T07:26:42.003Z,5.92
2023-02-20T07:29:10.626Z,5.93
2023-02-20T07:31:39.422Z,5.96
2023-02-20T07:34:08.269Z,6.00
2023-02-20T07:36:39.097Z,6.00
2023-02-20T07:39:07.606Z,6.03
2023-02-20T07:41:36.250Z,6.07
2023-02-20T07:44:14.835Z,6.13
2023-02-20T07:46:43.487Z,6.15
2023-02-20T07:49:11.839Z,6.21
2023-02-20T07:51:40.221Z,6.25
2023-02-20T07:54:08.563Z,6.29
2023-02-20T07:56:37.029Z,6.30
2023-02-20T07:59:05.271Z,6.35
2023-02-20T08:01:35.011Z,6.37
2023-02-20T08:04:03.767Z,6.44
2023-02-20T08:06:32.067Z,6.49
2023-02-20T08:09:00.319Z,6.59
2023-02-20T08:11:28.837Z,6.67
2023-02-20T08:13:57.275Z,6.70
2023-02-20T08:16:26.869Z,6.73
2023-02-20T08:18:56.475Z,6.74
2023-02-20T08:21:24.678Z,6.76
2023-02-20T08:23:54.929Z,6.83
2023-02-20T08:26:23.904Z,6.85
2023-02-20T08:28:53.390Z,6.92
2023-02-20T08:31:31.792Z,6.95
2023-02-20T08:34:02.530Z,7.02
2023-02-20T08:36:31.305Z,7.06
2023-02-20T08:39:01.145Z,7.07
2023-02-20T08:41:29.891Z,7.11
2023-02-20T08:43:58.412Z,7.19
2023-02-20T08:46:26.816Z,7.23
2023-02-20T08:48:55.751Z,7.25
2023-02-20T08:51:26.452Z,7.30
2023-02-20T08:53:54.815Z,7.34
2023-02-20T08:56:23.763Z,7.41
2023-02-20T08:58:52.227Z,7.48
2023-02-20T09:01:20.895Z,7.53
2023-02-20T09:03:51.341Z,7.57
2023-02-20T09:06:19.768Z,7.60
2023-02-20T09:08:50.134Z,7.60
2023-02-20T09:11:19.021Z,7.64
2023-02-20T09:13:49.419Z,7.73
2023-02-20T09:16:22.295Z,7.84
2023-02-20T09:18:51.231Z,7.87
2023-02-20T09:21:21.405Z,7.94
2023-02-20T09:23:51.200Z,7.97
2023-02-20T09:26:19.875Z,8.00
2023-02-20T09:28:48.366Z,8.04
2023-02-20T09:31:16.982Z,8.06
2023-02-20T09:33:51.153Z,8.12
2023-02-20T09:36:20.202Z,8.31
2023-02-20T09:38:50.186Z,8.32
2023-02-20T09:41:32.743Z,8.37
2023-02-20T09:44:12.706Z,8.44
2023-02-20T09:46:44.552Z,8.52
2023-02-20T09:49:16.190Z,8.72
2023-02-20T09:51:51.380Z,8.82
2023-02-20T09:54:28.073Z,8.90
2023-02-20T09:57:00.718Z,8.96
2023-02-20T09:59:34.642Z,9.04
2023-02-20T10:02:13.770Z,9.11
2023-02-20T10:04:59.104Z,9.23
2023-02-20T10:07:31.127Z,9.42
2023-02-20T10:10:06.257Z,9.25
2023-02-20T10:12:42.958Z,9.29
2023-02-20T10:15:21.005Z,9.43
2023-02-20T10:18:01.412Z,9.37
2023-02-20T10:20:41.200Z,9.51
2023-02-20T10:23:19.212Z,9.66
2023-02-20T10:25:55.111Z,9.69
2023-02-20T10:28:23.908Z,9.78
2023-02-20T10:31:01.243Z,9.72
2023-02-20T10:33:35.312Z,9.68
2023-02-20T10:36:11.115Z,9.72
2023-02-20T10:38:46.466Z,9.77
2023-02-20T10:41:22.366Z,9.87
2023-02-20T10:43:57.263Z,9.92
2023-02-20T10:46:47.830Z,9.86
2023-02-20T10:49:21.785Z,9.84
2023-02-20T10:51:53.156Z,9.98
2023-02-20T10:54:27.050Z,9.98
2023-02-20T10:57:02.253Z,9.93
2023-02-20T10:59:36.132Z,9.96
2023-02-20T11:02:12.153Z,9.98
2023-02-20T11:04:49.269Z,9.95
2023-02-20T11:07:19.584Z,9.95
2023-02-20T11:09:48.298Z,10.03
2023-02-20T11:12:30.321Z,10.12
2023-02-20T11:15:05.796Z,10.31
2023-02-20T11:17:35.837Z,10.25
2023-02-20T11:20:06.643Z,10.37
2023-02-20T11:22:44.606Z,10.35
2023-02-20T11:25:20.528Z,10.42
2023-02-20T11:27:54.453Z,10.52
2023-02-20T11:30:31.388Z,10.70
2023-02-20T11:33:06.422Z,10.65
2023-02-20T11:35:37.081Z,10.64
2023-02-20T11:38:33.714Z,10.69
2023-02-20T11:41:10.815Z,11.03
2023-02-20T11:44:00.144Z,11.28
2023-02-20T11:46:31.575Z,11.38
2023-02-20T11:49:05.337Z,11.91
2023-02-20T11:51:39.839Z,11.95
2023-02-20T11:54:16.327Z,12.09
2023-02-20T11:57:02.522Z,12.16
2023-02-20T11:59:37.484Z,12.24
2023-02-20T12:02:28.931Z,12.43
2023-02-20T12:05:10.929Z,12.80
2023-02-20T12:07:44.139Z,12.92
2023-02-20T12:10:36.905Z,13.07
2023-02-20T12:13:06.985Z,13.17
2023-02-20T12:15:36.538Z,13.28
2023-02-20T12:18:37.454Z,13.53
2023-02-20T12:21:17.168Z,13.49
2023-02-20T12:23:59.211Z,13.67
2023-02-20T12:26:44.912Z,13.68
2023-02-20T12:29:28.484Z,13.88
2023-02-20T12:32:10.934Z,13.88
2023-02-20T12:35:01.424Z,14.04
2023-02-20T12:37:45.795Z,14.40
2023-02-20T12:40:35.955Z,14.44
2023-02-20T12:43:19.479Z,14.59
2023-02-20T12:46:00.714Z,14.58
2023-02-20T12:48:44.595Z,14.81
2023-02-20T12:51:25.734Z,14.93
2023-02-20T12:54:07.771Z,15.04
2023-02-20T12:56:56.405Z,15.24
2023-02-20T12:59:31.588Z,15.26
2023-02-20T13:02:17.195Z,15.40
2023-02-20T13:04:54.401Z,15.39
2023-02-20T13:07:28.830Z,15.67
2023-02-20T13:10:05.969Z,15.84
2023-02-20T13:12:34.184Z,15.90
2023-02-20T13:15:23.981Z,16.11
2023-02-20T13:17:59.836Z,16.37
2023-02-20T13:20:35.220Z,16.57
2023-02-20T13:23:06.124Z,16.62
2023-02-20T13:25:43.755Z,16.62
2023-02-20T13:28:36.804Z,16.82
2023-02-20T13:31:24.556Z,16.93
2023-02-20T13:34:31.630Z,17.29
2023-02-20T13:37:01.747Z,17.52
2023-02-20T13:39:47.938Z,17.72
2023-02-20T13:42:35.122Z,18.09
2023-02-20T13:45:37.087Z,18.27
2023-02-20T13:48:39.745Z,18.53
2023-02-20T13:51:31.818Z,18.73
2023-02-20T13:54:23.779Z,19.10
2023-02-20T13:56:59.531Z,19.63
2023-02-20T13:59:29.709Z,19.76
2023-02-20T14:02:17.420Z,20.06
2023-02-20T14:04:58.550Z,20.16
2023-02-20T14:07:37.289Z,19.99
2023-02-20T14:10:17.031Z,19.91
2023-02-20T14:12:46.383Z,19.95
2023-02-20T14:15:14.923Z,20.35
2023-02-20T14:17:44.425Z,20.44
2023-02-20T14:20:25.513Z,20.53
2023-02-20T14:23:20.667Z,20.44
2023-02-20T14:26:01.386Z,20.39
2023-02-20T14:28:33.021Z,20.32
2023-02-20T14:31:21.996Z,20.42
2023-02-20T14:33:51.877Z,20.24
2023-02-20T14:36:36.071Z,20.22
2023-02-20T14:39:30.587Z,20.23
2023-02-20T14:42:03.456Z,20.34
2023-02-20T14:44:34.414Z,20.27
2023-02-20T14:47:09.698Z,20.01
2023-02-20T14:49:37.986Z,20.08
2023-02-20T14:52:17.723Z,20.19
2023-02-20T14:54:57.914Z,20.19
2023-02-20T14:57:28.104Z,20.18
2023-02-20T15:00:11.521Z,20.19
2023-02-20T15:02:43.820Z,20.24
2023-02-20T15:05:18.120Z,20.30
2023-02-20T15:07:47.207Z,20.28
2023-02-20T15:10:38.214Z,20.25
2023-02-20T15:13:12.385Z,20.33
2023-02-20T15:15:43.382Z,20.40
2023-02-20T15:18:14.336Z,20.40
2023-02-20T15:20:45.427Z,20.40
2023-02-20T15:23:26.552Z,20.42
2023-02-20T15:25:55.249Z,20.33
2023-02-20T15:28:30.908Z,20.18
2023-02-20T15:31:23.314Z,20.23
2023-02-20T15:33:54.763Z,20.27
2023-02-20T15:36:26.345Z,20.00
2023-02-20T15:38:56.895Z,19.89
2023-02-20T15:41:25.752Z,19.98
2023-02-20T15:43:55.548Z,19.99
2023-02-20T15:46:23.936Z,19.92
2023-02-20T15:48:52.229Z,19.92
2023-02-20T15:51:23.662Z,19.93
2023-02-20T15:53:54.088Z,19.81
2023-02-20T15:56:22.966Z,19.78
2023-02-20T15:58:52.212Z,19.88
2023-02-20T16:01:22.065Z,19.73
2023-02-20T16:03:53.071Z,19.75
2023-02-20T16:06:23.405Z,19.71
2023-02-20T16:08:53.201Z,19.66
2023-02-20T16:11:24.332Z,19.44
2023-02-20T16:13:57.192Z,19.34
2023-02-20T16:16:36.601Z,18.98
2023-02-20T16:19:13.944Z,18.76
2023-02-20T16:21:50.075Z,18.67
2023-02-20T16:24:29.731Z,18.57
2023-02-20T16:26:57.993Z,18.52
2023-02-20T16:29:33.233Z,18.37
2023-02-20T16:32:24.736Z,18.25
2023-02-20T16:34:54.816Z,18.23
2023-02-20T16:37:24.092Z,18.14
2023-02-20T16:39:52.857Z,17.99
2023-02-20T16:42:28.967Z,17.89
2023-02-20T16:44:58.760Z,17.80
2023-02-20T16:47:31.201Z,17.75
2023-02-20T16:50:01.524Z,17.63
2023-02-20T16:52:33.863Z,17.53
2023-02-20T16:55:03.640Z,17.43
2023-02-20T16:57:31.946Z,17.39
2023-02-20T17:00:01.698Z,17.15
2023-02-20T17:02:32.736Z,16.92
2023-02-20T17:05:01.962Z,16.86
2023-02-20T17:07:31.062Z,16.78
2023-02-20T17:09:59.668Z,16.64
2023-02-20T17:12:28.538Z,16.52
2023-02-20T17:14:58.055Z,16.44
2023-02-20T17:17:26.720Z,16.32
2023-02-20T17:19:57.036Z,16.22
2023-02-20T17:22:26.296Z,16.10
2023-02-20T17:24:56.624Z,16.06
2023-02-20T17:27:26.128Z,16.01
2023-02-20T17:29:54.502Z,15.99
2023-02-20T17:32:22.922Z,15.89
2023-02-20T17:34:51.553Z,15.79
2023-02-20T17:37:21.890Z,15.68
2023-02-20T17:39:50.401Z,15.59
2023-02-20T17:42:18.758Z,15.48
2023-02-20T17:44:47.250Z,15.43
2023-02-20T17:47:15.540Z,15.32
2023-02-20T17:49:44.042Z,15.26
2023-02-20T17:52:12.468Z,15.17
2023-02-20T17:54:47.127Z,15.09
2023-02-20T17:57:16.242Z,15.04
2023-02-20T17:59:44.672Z,14.97
2023-02-20T18:02:14.879Z,14.87
2023-02-20T18:04:43.247Z,14.77
2023-02-20T18:07:12.547Z,14.68
2023-02-20T18:09:42.207Z,14.71
2023-02-20T18:12:10.629Z,14.68
2023-02-20T18:14:38.948Z,14.70
2023-02-20T18:17:07.797Z,14.71
2023-02-20T18:19:36.062Z,14.65
2023-02-20T18:22:04.658Z,14.63
2023-02-20T18:24:33.843Z,14.62
2023-02-20T18:27:03.887Z,14.59
2023-02-20T18:29:32.402Z,14.59
2023-02-20T18:32:01.505Z,14.58
2023-02-20T18:34:31.308Z,14.57
2023-02-20T18:36:59.736Z,14.61
2023-02-20T18:39:28.036Z,14.48
2023-02-20T18:41:58.304Z,14.37
2023-02-20T18:44:28.112Z,14.27
2023-02-20T18:46:57.407Z,14.10
2023-02-20T18:49:25.806Z,13.95
2023-02-20T18:51:54.172Z,13.87
2023-02-20T18:54:32.731Z,13.73
2023-02-20T18:57:02.719Z,13.60
2023-02-20T18:59:32.914Z,13.55
2023-02-20T19:02:03.406Z,13.47
2023-02-20T19:04:33.373Z,13.49
2023-02-20T19:07:03.597Z,13.40
2023-02-20T19:09:34.306Z,13.39
2023-02-20T19:12:04.070Z,13.27
2023-02-20T19:14:34.251Z,13.21
2023-02-20T19:17:03.986Z,13.15
2023-02-20T19:19:34.342Z,13.03
2023-02-20T19:22:02.754Z,12.95
2023-02-20T19:24:31.088Z,12.87
2023-02-20T19:26:59.398Z,12.80
2023-02-20T19:29:27.666Z,12.76
2023-02-20T19:31:57.970Z,12.68
2023-02-20T19:34:26.364Z,12.64
2023-02-20T19:36:55.049Z,12.61
2023-02-20T19:39:24.314Z,12.60
2023-02-20T19:41:53.415Z,12.44
2023-02-20T19:44:24.007Z,12.36
2023-02-20T19:46:53.668Z,12.29
2023-02-20T19:49:23.938Z,12.23
2023-02-20T19:51:54.570Z,12.15
2023-02-20T19:54:26.001Z,12.08
2023-02-20T19:56:57.038Z,12.02
2023-02-20T19:59:25.463Z,11.95
2023-02-20T20:01:56.189Z,11.98
2023-02-20T20:04:28.140Z,11.97
2023-02-20T20:06:56.960Z,11.95
2023-02-20T20:09:36.031Z,11.91
2023-02-20T20:12:27.298Z,11.81
2023-02-20T20:14:56.662Z,11.74
2023-02-20T20:17:25.516Z,11.57
2023-02-20T20:19:59.790Z,11.50
2023-02-20T20:22:28.625Z,11.46
2023-02-20T20:24:57.063Z,11.43
2023-02-20T20:27:25.617Z,11.35
2023-02-20T20:29:53.961Z,11.38
2023-02-20T20:32:22.889Z,11.21
2023-02-20T20:34:55.335Z,11.20
2023-02-20T20:37:27.594Z,11.15
2023-02-20T20:39:58.926Z,11.14
2023-02-20T20:42:29.329Z,11.00
2023-02-20T20:44:59.854Z,10.97
2023-02-20T20:47:30.129Z,10.96
2023-02-20T20:50:00.619Z,10.92
2023-02-20T20:52:31.004Z,10.89
2023-02-20T20:55:01.281Z,10.70
2023-02-20T20:57:34.560Z,10.51
2023-02-20T21:00:03.203Z,10.40
2023-02-20T21:02:31.912Z,10.36
2023-02-20T21:05:10.278Z,10.27
2023-02-20T21:07:39.655Z,10.25
2023-02-20T21:10:09.474Z,10.29
2023-02-20T21:12:38.704Z,10.27
2023-02-20T21:15:08.527Z,10.23
2023-02-20T21:17:37.425Z,10.12
2023-02-20T21:20:09.353Z,10.05
2023-02-20T21:22:39.038Z,10.12
2023-02-20T21:25:07.970Z,10.02
2023-02-20T21:27:38.990Z,9.98
2023-02-20T21:30:10.155Z,9.91
2023-02-20T21:32:38.421Z,9.86
2023-02-20T21:35:08.483Z,9.80
2023-02-20T21:37:36.878Z,9.78
2023-02-20T21:40:05.823Z,9.77
2023-02-20T21:42:51.789Z,9.75
2023-02-20T21:45:20.254Z,9.82
2023-02-20T21:47:48.821Z,9.76
2023-02-20T21:50:20.667Z,9.69
2023-02-20T21:52:49.739Z,9.66
2023-02-20T21:55:19.324Z,9.63
2023-02-20T21:57:47.905Z,9.57
2023-02-20T22:00:16.491Z,9.46
2023-02-20T22:02:43.705Z,9.42
2023-02-20T22:05:11.924Z,9.41
2023-02-20T22:07:59.381Z,9.35
2023-02-20T22:10:45.667Z,9.29
2023-02-20T22:13:31.659Z,9.29
2023-02-20T22:16:17.956Z,9.26
2023-02-20T22:19:03.757Z,9.21
2023-02-20T22:21:50.260Z,9.18
2023-02-20T22:24:39.233Z,9.14
2023-02-20T22:27:26.082Z,9.05
2023-02-20T22:30:12.308Z,9.00
2023-02-20T22:32:58.346Z,8.98
2023-02-20T22:35:44.503Z,8.93
2023-02-20T22:38:30.618Z,8.89
2023-02-20T22:41:18.027Z,8.83
2023-02-20T22:44:05.781Z,8.75
2023-02-20T22:46:51.669Z,8.77
2023-02-20T22:49:37.978Z,8.72
2023-02-20T22:52:24.156Z,8.65
2023-02-20T22:55:12.209Z,8.64
2023-02-20T22:57:59.635Z,8.63
2023-02-20T23:00:45.795Z,8.57
2023-02-20T23:03:31.908Z,8.58
2023-02-20T23:06:19.657Z,8.57
2023-02-20T23:09:06.534Z,8.47
2023-02-20T23:11:53.502Z,8.38
2023-02-20T23:14:41.807Z,8.27
2023-02-20T23:17:36.193Z,8.20
2023-02-20T23:20:25.087Z,8.11
2023-02-20T23:23:11.215Z,8.12
2023-02-20T23:25:56.961Z,8.06
2023-02-20T23:28:42.919Z,8.03
2023-02-20T23:31:30.080Z,7.96
2023-02-20T23:34:16.244Z,7.80
2023-02-20T23:37:05.966Z,7.78
2023-02-20T23:39:51.757Z,7.68
2023-02-20T23:42:38.995Z,7.59
2023-02-20T23:45:27.253Z,7.51
2023-02-20T23:48:14.799Z,7.50
2023-02-20T23:51:00.825Z,7.48
2023-02-20T23:53:46.794Z,7.45
2023-02-20T23:56:33.743Z,7.41
2023-02-20T23:59:19.425Z,7.38
